createdAt,value
2022-12-02T00:02:32.780Z,62.30
2022-12-02T00:05:31.341Z,62.25
2022-12-02T00:08:16.738Z,61.73
2022-12-02T00:10:45.287Z,61.78
2022-12-02T00:13:32.115Z,62.48
2022-12-02T00:16:02.893Z,62.37
2022-12-02T00:18:30.822Z,62.11
2022-12-02T00:20:58.400Z,61.95
2022-12-02T00:23:26.319Z,61.30
2022-12-02T00:25:54.661Z,61.65
2022-12-02T00:28:23.194Z,62.10
2022-12-02T00:30:51.033Z,61.82
2022-12-02T00:33:19.059Z,62.59
2022-12-02T00:35:46.518Z,62.03
2022-12-02T00:38:14.650Z,62.15
2022-12-02T00:40:42.275Z,62.02
2022-12-02T00:43:28.463Z,61.70
2022-12-02T00:46:16.308Z,61.75
2022-12-02T00:48:43.889Z,61.50
2022-12-02T00:51:11.613Z,61.80
2022-12-02T00:53:39.129Z,62.28
2022-12-02T00:56:06.885Z,62.01
2022-12-02T00:58:34.839Z,62.31
2022-12-02T01:01:02.385Z,62.64
2022-12-02T01:03:30.000Z,62.16
2022-12-02T01:05:57.908Z,62.37
2022-12-02T01:08:27.604Z,61.63
2022-12-02T01:10:55.669Z,60.72
2022-12-02T01:13:25.530Z,60.90
2022-12-02T01:15:53.433Z,60.42
2022-12-02T01:18:21.350Z,62.03
2022-12-02T01:20:49.310Z,61.80
2022-12-02T01:23:17.026Z,61.76
2022-12-02T01:25:44.665Z,62.52
2022-12-02T01:28:12.583Z,62.18
2022-12-02T01:30:40.357Z,62.27
2022-12-02T01:33:07.915Z,61.92
2022-12-02T01:35:35.755Z,60.69
2022-12-02T01:38:03.851Z,60.58
2022-12-02T01:40:32.032Z,61.50
2022-12-02T01:43:00.070Z,61.10
2022-12-02T01:45:31.554Z,61.86
2022-12-02T01:48:01.147Z,62.20
2022-12-02T01:50:29.770Z,62.40
2022-12-02T01:52:58.581Z,62.66
2022-12-02T01:55:27.384Z,62.52
2022-12-02T01:57:56.747Z,63.00
2022-12-02T02:00:24.986Z,63.49
2022-12-02T02:02:52.874Z,62.95
2022-12-02T02:05:31.168Z,63.06
2022-12-02T02:08:05.687Z,63.01
2022-12-02T02:10:33.725Z,62.87
2022-12-02T02:13:02.183Z,62.59
2022-12-02T02:15:30.207Z,62.75
2022-12-02T02:18:03.402Z,62.04
2022-12-02T02:20:34.077Z,62.20
2022-12-02T02:23:08.703Z,62.02
2022-12-02T02:25:44.216Z,61.98
2022-12-02T02:28:12.610Z,62.03
2022-12-02T02:30:40.639Z,61.80
2022-12-02T02:33:09.717Z,61.58
2022-12-02T02:35:38.404Z,61.70
2022-12-02T02:38:07.571Z,61.27
2022-12-02T02:40:35.786Z,61.42
2022-12-02T02:43:04.409Z,60.69
2022-12-02T02:45:35.221Z,60.66
2022-12-02T02:48:05.991Z,59.98
2022-12-02T02:50:35.524Z,61.07
2022-12-02T02:53:03.832Z,60.30
2022-12-02T02:55:32.532Z,60.83
2022-12-02T02:58:27.324Z,62.26
2022-12-02T03:00:58.384Z,62.04
2022-12-02T03:03:29.045Z,61.29
2022-12-02T03:05:57.741Z,61.06
2022-12-02T03:08:26.236Z,61.10
2022-12-02T03:10:55.154Z,60.79
2022-12-02T03:13:22.924Z,60.98
2022-12-02T03:15:51.103Z,61.01
2022-12-02T03:18:18.676Z,60.47
2022-12-02T03:20:46.517Z,61.09
2022-12-02T03:23:14.691Z,60.61
2022-12-02T03:25:42.376Z,60.68
2022-12-02T03:28:12.046Z,60.57
2022-12-02T03:30:40.234Z,60.39
2022-12-02T03:33:08.288Z,60.77
2022-12-02T03:35:35.926Z,60.58
2022-12-02T03:38:03.772Z,61.96
2022-12-02T03:40:32.169Z,61.97
2022-12-02T03:42:59.691Z,61.04
2022-12-02T03:45:27.786Z,61.23
2022-12-02T03:47:55.642Z,61.04
2022-12-02T03:50:23.374Z,60.98
2022-12-02T03:52:51.343Z,60.14
2022-12-02T03:55:19.053Z,60.57
2022-12-02T03:57:46.517Z,60.72
2022-12-02T04:00:16.344Z,60.36
2022-12-02T04:02:44.474Z,60.60
2022-12-02T04:05:12.154Z,60.76
2022-12-02T04:07:39.870Z,60.08
2022-12-02T04:10:08.155Z,59.62
2022-12-02T04:12:35.573Z,59.70
2022-12-02T04:15:03.497Z,59.40
2022-12-02T04:17:31.314Z,59.51
2022-12-02T04:19:58.815Z,59.71
2022-12-02T04:22:26.324Z,59.57
2022-12-02T04:24:54.132Z,59.38
2022-12-02T04:27:21.598Z,58.86
2022-12-02T04:29:49.039Z,58.78
2022-12-02T04:32:16.925Z,59.02
2022-12-02T04:34:44.446Z,58.77
2022-12-02T04:37:11.965Z,58.55
2022-12-02T04:39:39.642Z,59.90
2022-12-02T04:42:07.314Z,59.34
2022-12-02T04:44:34.911Z,59.43
2022-12-02T04:47:02.623Z,59.50
2022-12-02T04:49:30.164Z,59.26
2022-12-02T04:51:57.549Z,59.54
2022-12-02T04:54:25.279Z,59.07
2022-12-02T04:56:52.905Z,58.62
2022-12-02T04:59:20.947Z,58.15
2022-12-02T05:01:48.938Z,59.17
2022-12-02T05:04:16.480Z,59.13
2022-12-02T05:06:44.080Z,58.88
2022-12-02T05:09:12.092Z,58.77
2022-12-02T05:11:39.705Z,59.22
2022-12-02T05:14:07.575Z,59.11
2022-12-02T05:16:35.641Z,58.74
2022-12-02T05:19:03.142Z,58.88
2022-12-02T05:21:30.765Z,59.04
2022-12-02T05:23:58.526Z,58.84
2022-12-02T05:26:25.970Z,59.00
2022-12-02T05:28:53.548Z,59.14
2022-12-02T05:31:21.485Z,59.44
2022-12-02T05:33:48.948Z,59.35
2022-12-02T05:36:16.447Z,58.89
2022-12-02T05:38:44.417Z,58.83
2022-12-02T05:41:12.133Z,58.66
2022-12-02T05:43:41.940Z,58.18
2022-12-02T05:46:16.295Z,59.49
2022-12-02T05:48:44.559Z,59.18
2022-12-02T05:51:15.384Z,58.92
2022-12-02T05:53:43.895Z,58.84
2022-12-02T05:56:26.604Z,58.68
2022-12-02T05:58:54.160Z,58.05
2022-12-02T06:01:40.954Z,58.73
2022-12-02T06:04:15.191Z,58.79
2022-12-02T06:06:42.647Z,59.17
2022-12-02T06:09:18.944Z,59.03
2022-12-02T06:11:47.654Z,59.27
2022-12-02T06:14:20.824Z,59.38
2022-12-02T06:16:53.016Z,60.42
2022-12-02T06:19:40.970Z,59.65
2022-12-02T06:22:19.103Z,59.20
2022-12-02T06:24:47.216Z,58.20
2022-12-02T06:27:16.289Z,58.10
2022-12-02T06:29:55.035Z,58.97
2022-12-02T06:32:23.837Z,59.00
2022-12-02T06:34:52.837Z,60.19
2022-12-02T06:37:22.088Z,60.24
2022-12-02T06:40:26.488Z,59.78
2022-12-02T06:42:43.349Z,58.61
2022-12-02T06:45:30.091Z,58.75
2022-12-02T06:48:19.936Z,58.06
2022-12-02T06:50:48.529Z,58.25
2022-12-02T06:53:25.916Z,57.46
2022-12-02T06:56:04.747Z,57.78
2022-12-02T06:58:46.072Z,58.36
2022-12-02T07:01:21.594Z,58.70
2022-12-02T07:04:05.605Z,59.33
2022-12-02T07:06:35.552Z,58.58
2022-12-02T07:09:19.087Z,58.40
2022-12-02T07:11:53.123Z,58.83
2022-12-02T07:14:39.784Z,59.20
2022-12-02T07:17:24.157Z,57.07
2022-12-02T07:19:59.347Z,57.08
2022-12-02T07:22:36.463Z,57.62
2022-12-02T07:25:10.103Z,58.00
2022-12-02T07:27:40.648Z,58.78
2022-12-02T07:30:24.763Z,57.76
2022-12-02T07:32:52.879Z,56.93
2022-12-02T07:35:21.043Z,59.27
2022-12-02T07:37:49.206Z,57.28
2022-12-02T07:40:18.363Z,58.40
2022-12-02T07:42:46.178Z,57.63
2022-12-02T07:45:16.413Z,57.23
2022-12-02T07:47:45.046Z,57.35
2022-12-02T07:50:14.551Z,57.70
2022-12-02T07:52:42.187Z,57.07
2022-12-02T07:55:09.989Z,58.17
2022-12-02T07:57:39.180Z,57.24
2022-12-02T08:00:08.646Z,58.74
2022-12-02T08:02:39.817Z,58.98
2022-12-02T08:05:08.187Z,58.79
2022-12-02T08:07:35.649Z,59.48
2022-12-02T08:10:03.714Z,59.52
2022-12-02T08:12:31.699Z,58.28
2022-12-02T08:14:59.191Z,59.22
2022-12-02T08:17:26.757Z,60.15
2022-12-02T08:19:55.633Z,59.85
2022-12-02T08:22:23.261Z,59.57
2022-12-02T08:24:51.077Z,59.33
2022-12-02T08:27:19.035Z,59.30
2022-12-02T08:29:46.681Z,58.48
2022-12-02T08:32:14.264Z,58.60
2022-12-02T08:34:42.185Z,58.08
2022-12-02T08:37:09.789Z,58.34
2022-12-02T08:39:37.582Z,57.63
2022-12-02T08:42:05.658Z,58.02
2022-12-02T08:44:33.304Z,58.40
2022-12-02T08:47:00.908Z,58.13
2022-12-02T08:49:28.739Z,58.93
2022-12-02T08:51:56.269Z,58.46
2022-12-02T08:54:24.103Z,58.76
2022-12-02T08:56:52.173Z,60.24
2022-12-02T08:59:19.621Z,59.85
2022-12-02T09:01:49.570Z,59.07
2022-12-02T09:04:17.347Z,59.22
2022-12-02T09:06:44.856Z,59.76
2022-12-02T09:09:12.972Z,59.82
2022-12-02T09:11:41.018Z,58.40
2022-12-02T09:14:08.815Z,58.31
2022-12-02T09:16:36.449Z,58.34
2022-12-02T09:19:04.239Z,59.03
2022-12-02T09:21:31.882Z,58.39
2022-12-02T09:23:59.424Z,59.39
2022-12-02T09:26:27.351Z,59.58
2022-12-02T09:28:54.795Z,60.85
2022-12-02T09:31:22.413Z,60.15
2022-12-02T09:33:50.561Z,60.03
2022-12-02T09:36:18.102Z,59.61
2022-12-02T09:38:46.007Z,58.16
2022-12-02T09:41:13.950Z,58.21
2022-12-02T09:43:42.357Z,57.26
2022-12-02T09:46:09.988Z,58.84
2022-12-02T09:48:38.338Z,58.67
2022-12-02T09:51:05.957Z,58.63
2022-12-02T09:53:37.624Z,59.28
2022-12-02T09:56:06.871Z,60.15
2022-12-02T09:58:34.396Z,60.49
2022-12-02T10:01:02.268Z,59.41
2022-12-02T10:03:30.439Z,60.55
2022-12-02T10:06:00.966Z,61.35
2022-12-02T10:08:30.166Z,60.61
2022-12-02T10:11:00.576Z,61.01
2022-12-02T10:13:28.164Z,61.40
2022-12-02T10:15:57.019Z,60.85
2022-12-02T10:18:28.259Z,60.42
2022-12-02T10:20:55.878Z,60.37
2022-12-02T10:23:25.612Z,60.59
2022-12-02T10:26:14.245Z,60.38
2022-12-02T10:28:42.423Z,60.86
2022-12-02T10:31:14.426Z,61.01
2022-12-02T10:33:53.458Z,59.33
2022-12-02T10:36:41.646Z,59.77
2022-12-02T10:39:35.904Z,61.31
2022-12-02T10:42:07.880Z,61.83
2022-12-02T10:44:42.904Z,63.13
2022-12-02T10:47:10.787Z,62.63
2022-12-02T10:49:38.511Z,61.55
2022-12-02T10:52:11.323Z,62.02
2022-12-02T10:54:43.909Z,62.47
2022-12-02T10:57:32.808Z,61.82
2022-12-02T11:00:18.857Z,62.37
2022-12-02T11:02:52.485Z,62.35
2022-12-02T11:05:24.436Z,62.96
2022-12-02T11:08:05.636Z,61.38
2022-12-02T11:10:38.663Z,62.36
2022-12-02T11:13:07.501Z,61.53
2022-12-02T11:15:37.094Z,60.70
2022-12-02T11:18:07.069Z,60.65
2022-12-02T11:20:45.720Z,61.44
2022-12-02T11:23:20.676Z,61.62
2022-12-02T11:25:51.000Z,62.15
2022-12-02T11:28:18.639Z,62.80
2022-12-02T11:30:47.877Z,63.01
2022-12-02T11:33:53.809Z,61.44
2022-12-02T11:36:24.108Z,63.08
2022-12-02T11:38:51.952Z,63.29
2022-12-02T11:41:27.002Z,63.23
2022-12-02T11:43:56.292Z,63.55
2022-12-02T11:46:39.027Z,63.72
2022-12-02T11:49:42.937Z,62.58
2022-12-02T11:52:11.998Z,62.84
2022-12-02T11:54:47.251Z,62.51
2022-12-02T11:57:30.133Z,64.42
2022-12-02T11:59:58.780Z,63.69
2022-12-02T12:02:26.520Z,63.70
2022-12-02T12:05:06.808Z,64.62
2022-12-02T12:07:45.666Z,64.40
2022-12-02T12:10:45.900Z,64.66
2022-12-02T12:13:37.085Z,63.37
2022-12-02T12:16:05.365Z,63.09
2022-12-02T12:18:43.775Z,63.82
2022-12-02T12:21:35.659Z,64.61
2022-12-02T12:24:18.555Z,63.58
2022-12-02T12:26:48.353Z,63.88
2022-12-02T12:29:16.756Z,63.74
2022-12-02T12:31:44.728Z,63.56
2022-12-02T12:34:13.015Z,62.90
2022-12-02T12:36:41.700Z,62.34
2022-12-02T12:39:09.501Z,61.97
2022-12-02T12:44:30.122Z,62.71
2022-12-02T12:47:00.269Z,62.56
2022-12-02T12:49:28.162Z,63.01
2022-12-02T12:51:56.130Z,65.22
2022-12-02T12:54:27.482Z,64.11
2022-12-02T12:56:55.078Z,64.56
2022-12-02T12:59:22.840Z,65.24
2022-12-02T13:01:51.324Z,64.32
2022-12-02T13:04:19.154Z,64.19
2022-12-02T13:06:47.332Z,65.45
2022-12-02T13:09:15.957Z,65.97
2022-12-02T13:11:43.601Z,64.73
2022-12-02T13:14:11.213Z,64.80
2022-12-02T13:16:39.227Z,64.94
2022-12-02T13:19:06.995Z,65.34
2022-12-02T13:21:34.564Z,65.52
2022-12-02T13:24:04.146Z,64.63
2022-12-02T13:26:31.988Z,64.96
2022-12-02T13:28:59.545Z,64.87
2022-12-02T13:31:27.668Z,65.33
2022-12-02T13:33:55.254Z,65.06
2022-12-02T13:36:22.836Z,64.87
2022-12-02T13:38:53.454Z,65.62
2022-12-02T13:41:21.022Z,65.67
2022-12-02T13:43:48.581Z,66.49
2022-12-02T13:46:16.699Z,66.37
2022-12-02T13:48:44.469Z,65.48
2022-12-02T13:51:12.110Z,65.17
2022-12-02T13:53:40.353Z,64.59
2022-12-02T13:56:10.829Z,63.96
2022-12-02T13:58:40.440Z,65.10
2022-12-02T14:01:08.704Z,64.77
2022-12-02T14:03:37.152Z,65.43
2022-12-02T14:06:04.893Z,65.35
2022-12-02T14:08:32.785Z,63.97
2022-12-02T14:11:00.936Z,64.38
2022-12-02T14:13:28.784Z,65.25
2022-12-02T14:15:56.832Z,64.81
2022-12-02T14:18:27.358Z,65.17
2022-12-02T14:20:54.922Z,65.11
2022-12-02T14:23:22.659Z,66.04
2022-12-02T14:25:50.623Z,65.45
2022-12-02T14:28:18.058Z,66.19
2022-12-02T14:30:45.689Z,66.88
2022-12-02T14:33:14.848Z,66.00
2022-12-02T14:35:43.413Z,65.17
2022-12-02T14:38:10.933Z,64.70
2022-12-02T14:40:39.117Z,66.51
2022-12-02T14:43:12.647Z,65.94
2022-12-02T14:45:42.091Z,65.01
2022-12-02T14:48:09.526Z,65.71
2022-12-02T14:50:37.107Z,64.49
2022-12-02T14:53:05.126Z,64.18
2022-12-02T14:55:32.964Z,64.55
2022-12-02T14:58:00.510Z,64.11
2022-12-02T15:00:28.386Z,64.27
2022-12-02T15:02:56.090Z,63.73
2022-12-02T15:05:23.784Z,64.62
2022-12-02T15:07:51.809Z,65.16
2022-12-02T15:10:19.293Z,65.18
2022-12-02T15:12:47.253Z,65.52
2022-12-02T15:15:38.733Z,64.50
2022-12-02T15:18:07.740Z,64.19
2022-12-02T15:20:35.621Z,64.40
2022-12-02T15:23:03.351Z,64.26
2022-12-02T15:25:31.400Z,64.66
2022-12-02T15:27:59.583Z,63.99
2022-12-02T15:30:29.228Z,64.89
2022-12-02T15:32:57.057Z,64.52
2022-12-02T15:35:25.222Z,65.66
2022-12-02T15:37:53.503Z,65.16
2022-12-02T15:40:21.034Z,64.77
2022-12-02T15:42:52.115Z,65.49
2022-12-02T15:45:25.444Z,64.64
2022-12-02T15:47:59.315Z,64.66
2022-12-02T15:50:27.058Z,64.43
2022-12-02T15:52:55.038Z,64.26
2022-12-02T15:55:23.123Z,65.23
2022-12-02T15:57:53.241Z,65.88
2022-12-02T16:00:21.966Z,64.77
2022-12-02T16:02:55.740Z,64.41
2022-12-02T16:05:24.437Z,64.52
2022-12-02T16:07:52.358Z,64.84
2022-12-02T16:10:20.196Z,64.96
2022-12-02T16:12:47.749Z,65.18
2022-12-02T16:15:16.046Z,64.79
2022-12-02T16:17:44.044Z,65.47
2022-12-02T16:20:12.997Z,64.91
2022-12-02T16:22:41.452Z,65.86
2022-12-02T16:25:09.320Z,65.19
2022-12-02T16:27:37.047Z,65.38
2022-12-02T16:30:05.833Z,65.91
2022-12-02T16:32:33.319Z,66.08
2022-12-02T16:35:00.951Z,65.89
2022-12-02T16:37:28.806Z,66.00
2022-12-02T16:39:56.475Z,64.52
2022-12-02T16:42:24.143Z,64.79
2022-12-02T16:44:56.055Z,64.69
2022-12-02T16:47:23.998Z,65.21
2022-12-02T16:49:51.989Z,65.21
2022-12-02T16:52:19.707Z,64.63
2022-12-02T16:54:47.337Z,64.80
2022-12-02T16:57:15.310Z,64.44
2022-12-02T16:59:43.019Z,65.06
2022-12-02T17:02:11.251Z,65.37
2022-12-02T17:04:39.562Z,65.67
2022-12-02T17:07:07.126Z,64.76
2022-12-02T17:09:34.864Z,65.29
2022-12-02T17:12:02.841Z,64.53
2022-12-02T17:14:30.415Z,65.32
2022-12-02T17:17:06.024Z,64.15
2022-12-02T17:19:41.720Z,64.57
2022-12-02T17:22:10.648Z,64.69
2022-12-02T17:24:38.403Z,64.59
2022-12-02T17:27:06.689Z,64.33
2022-12-02T17:29:34.327Z,63.47
2022-12-02T17:32:02.009Z,65.11
2022-12-02T17:34:30.284Z,64.67
2022-12-02T17:36:57.767Z,64.15
2022-12-02T17:39:25.229Z,64.60
2022-12-02T17:41:53.198Z,64.33
2022-12-02T17:44:20.798Z,63.93
2022-12-02T17:46:48.825Z,63.41
2022-12-02T17:49:16.926Z,63.64
2022-12-02T17:52:06.394Z,64.17
2022-12-02T17:54:33.171Z,64.81
2022-12-02T17:57:00.715Z,64.95
2022-12-02T17:59:28.353Z,64.91
2022-12-02T18:01:56.476Z,65.52
2022-12-02T18:04:24.483Z,65.08
2022-12-02T18:06:52.053Z,64.69
2022-12-02T18:09:19.660Z,65.06
2022-12-02T18:11:48.488Z,64.88
2022-12-02T18:14:16.082Z,64.77
2022-12-02T18:16:44.203Z,64.86
2022-12-02T18:19:12.017Z,64.54
2022-12-02T18:21:39.938Z,64.46
2022-12-02T18:24:07.745Z,64.45
2022-12-02T18:26:35.665Z,65.08
2022-12-02T18:29:03.435Z,64.29
2022-12-02T18:31:31.044Z,64.70
2022-12-02T18:33:59.761Z,64.68
2022-12-02T18:36:27.179Z,64.50
2022-12-02T18:38:54.605Z,64.25
2022-12-02T18:41:22.467Z,64.43
2022-12-02T18:43:50.243Z,64.87
2022-12-02T18:46:17.890Z,64.72
2022-12-02T18:48:45.671Z,63.82
2022-12-02T18:51:13.537Z,64.16
2022-12-02T18:53:41.075Z,64.44
2022-12-02T18:56:09.071Z,64.56
2022-12-02T18:58:38.583Z,64.55
2022-12-02T19:01:06.288Z,65.35
2022-12-02T19:03:34.071Z,65.45
2022-12-02T19:06:01.522Z,65.66
2022-12-02T19:08:29.219Z,65.48
2022-12-02T19:10:57.182Z,64.94
2022-12-02T19:13:26.211Z,64.48
2022-12-02T19:15:54.058Z,64.26
2022-12-02T19:18:21.941Z,65.02
2022-12-02T19:20:49.908Z,63.60
2022-12-02T19:23:17.488Z,64.45
2022-12-02T19:25:50.017Z,64.70
2022-12-02T19:28:17.968Z,63.69
2022-12-02T19:30:45.950Z,64.38
2022-12-02T19:33:13.623Z,65.96
2022-12-02T19:35:41.446Z,66.52
2022-12-02T19:38:14.898Z,66.08
2022-12-02T19:40:45.414Z,65.69
2022-12-02T19:43:14.962Z,65.43
2022-12-02T19:45:43.119Z,66.23
2022-12-02T19:48:11.100Z,66.19
2022-12-02T19:50:38.996Z,66.10
2022-12-02T19:53:06.895Z,65.52
2022-12-02T19:55:34.327Z,65.51
2022-12-02T19:58:02.160Z,65.41
2022-12-02T20:00:29.772Z,65.46
2022-12-02T20:02:57.641Z,65.28
2022-12-02T20:05:25.613Z,65.12
2022-12-02T20:07:53.132Z,65.56
2022-12-02T20:10:21.852Z,65.58
2022-12-02T20:12:49.469Z,65.75
2022-12-02T20:15:17.425Z,64.69
2022-12-02T20:17:45.359Z,64.94
2022-12-02T20:20:14.170Z,66.22
2022-12-02T20:22:42.233Z,65.30
2022-12-02T20:25:10.905Z,65.25
2022-12-02T20:27:38.981Z,66.46
2022-12-02T20:30:08.746Z,65.45
2022-12-02T20:32:38.064Z,65.39
2022-12-02T20:35:08.690Z,64.72
2022-12-02T20:37:36.306Z,64.98
2022-12-02T20:40:04.914Z,64.82
2022-12-02T20:42:32.648Z,64.90
2022-12-02T20:45:00.374Z,65.84
2022-12-02T20:47:29.228Z,64.65
2022-12-02T20:49:56.767Z,64.09
2022-12-02T20:52:24.271Z,64.95
2022-12-02T20:54:52.503Z,64.44
2022-12-02T20:57:20.586Z,64.58
2022-12-02T20:59:48.082Z,65.74
2022-12-02T21:02:15.888Z,64.94
2022-12-02T21:04:43.565Z,64.55
2022-12-02T21:07:11.235Z,63.46
2022-12-02T21:09:39.791Z,64.81
2022-12-02T21:12:08.074Z,63.29
2022-12-02T21:14:36.108Z,64.18
2022-12-02T21:17:04.175Z,64.31
2022-12-02T21:19:31.855Z,64.17
2022-12-02T21:21:59.426Z,64.13
2022-12-02T21:24:27.150Z,63.92
2022-12-02T21:26:55.178Z,63.67
2022-12-02T21:29:23.884Z,64.72
2022-12-02T21:31:52.391Z,65.16
2022-12-02T21:34:20.145Z,65.23
2022-12-02T21:36:47.625Z,65.55
2022-12-02T21:39:15.694Z,65.58
2022-12-02T21:41:43.497Z,64.56
2022-12-02T21:44:11.105Z,64.59
2022-12-02T21:46:39.025Z,65.56
2022-12-02T21:49:06.477Z,65.73
2022-12-02T21:51:33.979Z,66.45
2022-12-02T21:54:05.262Z,65.50
2022-12-02T21:56:36.656Z,66.64
2022-12-02T21:59:04.813Z,66.39
2022-12-02T22:01:38.104Z,65.79
2022-12-02T22:04:07.342Z,65.78
2022-12-02T22:06:35.291Z,64.89
2022-12-02T22:09:04.384Z,65.18
2022-12-02T22:11:32.531Z,66.22
2022-12-02T22:14:00.308Z,67.25
2022-12-02T22:16:28.022Z,66.30
2022-12-02T22:18:57.144Z,66.97
2022-12-02T22:21:24.980Z,67.96
2022-12-02T22:23:52.539Z,68.00
2022-12-02T22:26:20.501Z,67.31
2022-12-02T22:28:48.283Z,67.57
2022-12-02T22:31:15.971Z,68.89
2022-12-02T22:33:43.826Z,67.76
2022-12-02T22:36:11.731Z,68.65
2022-12-02T22:38:39.179Z,68.93
2022-12-02T22:41:07.058Z,69.13
2022-12-02T22:43:34.712Z,69.20
2022-12-02T22:46:02.368Z,68.62
2022-12-02T22:48:31.228Z,68.36
2022-12-02T22:50:58.708Z,69.58
2022-12-02T22:53:26.228Z,68.76
2022-12-02T22:55:54.038Z,69.28
2022-12-02T22:58:21.610Z,67.69
2022-12-02T23:00:49.251Z,69.23
2022-12-02T23:03:17.329Z,68.28
2022-12-02T23:05:44.916Z,67.95
2022-12-02T23:08:12.608Z,67.18
2022-12-02T23:10:40.714Z,68.53
2022-12-02T23:13:08.752Z,67.79
2022-12-02T23:15:38.564Z,68.06
2022-12-02T23:18:07.316Z,68.56
2022-12-02T23:20:35.619Z,67.99
2022-12-02T23:23:03.306Z,66.78
2022-12-02T23:25:31.047Z,66.90
2022-12-02T23:27:58.642Z,68.49
2022-12-02T23:30:29.323Z,68.67
2022-12-02T23:32:58.731Z,68.30
2022-12-02T23:35:26.832Z,68.38
2022-12-02T23:37:54.608Z,67.60
2022-12-02T23:40:22.500Z,68.16
2022-12-02T23:42:50.098Z,67.55
2022-12-02T23:45:17.614Z,68.59
2022-12-02T23:47:45.444Z,68.25
2022-12-02T23:50:13.160Z,67.95
2022-12-02T23:52:40.626Z,67.36
2022-12-02T23:55:10.524Z,67.28
2022-12-02T23:57:38.048Z,67.69
